sensor_id;sensor_type;location;lat;lon;timestamp;temperature;humidity
4433;DHT22;2229;48.708;9.706;2023-01-31T00:01:08;3.20;99.90
4433;DHT22;2229;48.708;9.706;2023-01-31T00:03:36;3.00;99.90
4433;DHT22;2229;48.708;9.706;2023-01-31T00:06:15;3.00;99.90
4433;DHT22;2229;48.708;9.706;2023-01-31T00:08:46;3.00;99.90
4433;DHT22;2229;48.708;9.706;2023-01-31T00:11:13;3.00;99.90
4433;DHT22;2229;48.708;9.706;2023-01-31T00:13:41;3.00;99.90
4433;DHT22;2229;48.708;9.706;2023-01-31T00:16:10;3.00;99.90
4433;DHT22;2229;48.708;9.706;2023-01-31T00:18:38;2.90;99.90
4433;DHT22;2229;48.708;9.706;2023-01-31T00:21:06;3.00;99.90
4433;DHT22;2229;48.708;9.706;2023-01-31T00:23:34;2.90;99.90
4433;DHT22;2229;48.708;9.706;2023-01-31T00:26:14;2.90;99.90
4433;DHT22;2229;48.708;9.706;2023-01-31T00:28:44;2.90;99.90
4433;DHT22;2229;48.708;9.706;2023-01-31T00:31:13;2.90;99.90
4433;DHT22;2229;48.708;9.706;2023-01-31T00:33:44;2.90;99.90
4433;DHT22;2229;48.708;9.706;2023-01-31T00:36:13;2.90;99.90
4433;DHT22;2229;48.708;9.706;2023-01-31T00:38:46;2.80;99.90
4433;DHT22;2229;48.708;9.706;2023-01-31T00:41:15;2.80;99.90
4433;DHT22;2229;48.708;9.706;2023-01-31T00:43:42;2.80;99.90
4433;DHT22;2229;48.708;9.706;2023-01-31T00:46:09;2.80;99.90
4433;DHT22;2229;48.708;9.706;2023-01-31T00:48:36;2.80;99.90
4433;DHT22;2229;48.708;9.706;2023-01-31T00:51:04;2.80;99.90
4433;DHT22;2229;48.708;9.706;2023-01-31T00:53:31;2.80;99.90
4433;DHT22;2229;48.708;9.706;2023-01-31T00:56:03;2.80;99.90
4433;DHT22;2229;48.708;9.706;2023-01-31T00:58:33;2.80;99.90
4433;DHT22;2229;48.708;9.706;2023-01-31T01:01:06;2.80;99.90
4433;DHT22;2229;48.708;9.706;2023-01-31T01:03:34;2.80;99.90
4433;DHT22;2229;48.708;9.706;2023-01-31T01:06:03;2.80;99.90
4433;DHT22;2229;48.708;9.706;2023-01-31T01:08:30;2.80;99.90
4433;DHT22;2229;48.708;9.706;2023-01-31T01:11:04;2.80;99.90
4433;DHT22;2229;48.708;9.706;2023-01-31T01:13:32;2.80;99.90
4433;DHT22;2229;48.708;9.706;2023-01-31T01:16:04;2.80;99.90
4433;DHT22;2229;48.708;9.706;2023-01-31T01:18:32;2.80;99.90
4433;DHT22;2229;48.708;9.706;2023-01-31T01:21:05;2.80;99.90
4433;DHT22;2229;48.708;9.706;2023-01-31T01:23:32;2.80;99.90
4433;DHT22;2229;48.708;9.706;2023-01-31T01:26:00;2.80;99.90
4433;DHT22;2229;48.708;9.706;2023-01-31T01:28:27;2.80;99.90
4433;DHT22;2229;48.708;9.706;2023-01-31T01:30:57;2.80;99.90
4433;DHT22;2229;48.708;9.706;2023-01-31T01:33:24;2.80;99.90
4433;DHT22;2229;48.708;9.706;2023-01-31T01:35:51;2.70;99.90
4433;DHT22;2229;48.708;9.706;2023-01-31T01:38:18;2.70;99.90
4433;DHT22;2229;48.708;9.706;2023-01-31T01:40:46;2.80;99.90
4433;DHT22;2229;48.708;9.706;2023-01-31T01:43:13;2.70;99.90
4433;DHT22;2229;48.708;9.706;2023-01-31T01:45:40;2.70;99.90
4433;DHT22;2229;48.708;9.706;2023-01-31T01:48:15;2.70;99.90
4433;DHT22;2229;48.708;9.706;2023-01-31T01:50:46;2.70;99.90
4433;DHT22;2229;48.708;9.706;2023-01-31T01:53:17;2.70;99.90
4433;DHT22;2229;48.708;9.706;2023-01-31T01:55:47;2.70;99.90
4433;DHT22;2229;48.708;9.706;2023-01-31T01:58:19;2.70;99.90
4433;DHT22;2229;48.708;9.706;2023-01-31T02:00:48;2.70;99.90
4433;DHT22;2229;48.708;9.706;2023-01-31T02:03:18;2.70;99.90
4433;DHT22;2229;48.708;9.706;2023-01-31T02:05:48;2.70;99.90
4433;DHT22;2229;48.708;9.706;2023-01-31T02:08:18;2.70;99.90
4433;DHT22;2229;48.708;9.706;2023-01-31T02:10:48;2.70;99.90
4433;DHT22;2229;48.708;9.706;2023-01-31T02:13:18;2.70;99.90
4433;DHT22;2229;48.708;9.706;2023-01-31T02:15:46;2.70;99.90
4433;DHT22;2229;48.708;9.706;2023-01-31T02:18:15;2.70;99.90
4433;DHT22;2229;48.708;9.706;2023-01-31T02:21:15;2.70;99.90
4433;DHT22;2229;48.708;9.706;2023-01-31T02:24:10;2.70;99.90
4433;DHT22;2229;48.708;9.706;2023-01-31T02:27:22;2.70;99.90
4433;DHT22;2229;48.708;9.706;2023-01-31T02:33:12;2.60;99.90
4433;DHT22;2229;48.708;9.706;2023-01-31T02:40:12;2.60;99.90
4433;DHT22;2229;48.708;9.706;2023-01-31T02:42:48;2.60;99.90
4433;DHT22;2229;48.708;9.706;2023-01-31T02:45:27;2.60;99.90
4433;DHT22;2229;48.708;9.706;2023-01-31T02:48:15;2.60;99.90
4433;DHT22;2229;48.708;9.706;2023-01-31T02:50:57;2.60;99.90
4433;DHT22;2229;48.708;9.706;2023-01-31T02:53:30;2.60;99.90
4433;DHT22;2229;48.708;9.706;2023-01-31T02:56:02;2.60;99.90
4433;DHT22;2229;48.708;9.706;2023-01-31T02:58:49;2.60;99.90
4433;DHT22;2229;48.708;9.706;2023-01-31T03:01:25;2.60;99.90
4433;DHT22;2229;48.708;9.706;2023-01-31T03:03:58;2.60;99.90
4433;DHT22;2229;48.708;9.706;2023-01-31T03:09:39;2.60;99.90
4433;DHT22;2229;48.708;9.706;2023-01-31T03:12:31;2.70;99.90
4433;DHT22;2229;48.708;9.706;2023-01-31T03:15:25;2.60;99.90
4433;DHT22;2229;48.708;9.706;2023-01-31T03:18:16;2.70;99.90
4433;DHT22;2229;48.708;9.706;2023-01-31T03:20:49;2.70;99.90
4433;DHT22;2229;48.708;9.706;2023-01-31T03:23:20;2.70;99.90
4433;DHT22;2229;48.708;9.706;2023-01-31T03:25:49;2.70;99.90
4433;DHT22;2229;48.708;9.706;2023-01-31T03:28:21;2.70;99.90
4433;DHT22;2229;48.708;9.706;2023-01-31T03:30:58;2.70;99.90
4433;DHT22;2229;48.708;9.706;2023-01-31T03:33:29;2.70;99.90
4433;DHT22;2229;48.708;9.706;2023-01-31T03:36:08;2.70;99.90
4433;DHT22;2229;48.708;9.706;2023-01-31T03:38:43;2.70;99.90
4433;DHT22;2229;48.708;9.706;2023-01-31T03:41:20;2.60;99.90
4433;DHT22;2229;48.708;9.706;2023-01-31T03:43:54;2.60;99.90
4433;DHT22;2229;48.708;9.706;2023-01-31T03:46:29;2.60;99.90
4433;DHT22;2229;48.708;9.706;2023-01-31T03:48:58;2.60;99.90
4433;DHT22;2229;48.708;9.706;2023-01-31T03:51:32;2.60;99.90
4433;DHT22;2229;48.708;9.706;2023-01-31T03:54:02;2.60;99.90
4433;DHT22;2229;48.708;9.706;2023-01-31T03:56:34;2.60;99.90
4433;DHT22;2229;48.708;9.706;2023-01-31T03:59:07;2.60;99.90
4433;DHT22;2229;48.708;9.706;2023-01-31T04:01:38;2.50;99.90
4433;DHT22;2229;48.708;9.706;2023-01-31T04:04:11;2.50;99.90
4433;DHT22;2229;48.708;9.706;2023-01-31T04:06:42;2.50;99.90
4433;DHT22;2229;48.708;9.706;2023-01-31T04:09:09;2.50;99.90
4433;DHT22;2229;48.708;9.706;2023-01-31T04:11:38;2.50;99.90
4433;DHT22;2229;48.708;9.706;2023-01-31T04:14:05;2.50;99.90
4433;DHT22;2229;48.708;9.706;2023-01-31T04:16:33;2.50;99.90
4433;DHT22;2229;48.708;9.706;2023-01-31T04:19:02;2.60;99.90
4433;DHT22;2229;48.708;9.706;2023-01-31T04:21:30;2.60;99.90
4433;DHT22;2229;48.708;9.706;2023-01-31T04:23:59;2.60;99.90
4433;DHT22;2229;48.708;9.706;2023-01-31T04:26:26;2.60;99.90
4433;DHT22;2229;48.708;9.706;2023-01-31T04:28:53;2.60;99.90
4433;DHT22;2229;48.708;9.706;2023-01-31T04:31:21;2.60;99.90
4433;DHT22;2229;48.708;9.706;2023-01-31T04:33:48;2.60;99.90
4433;DHT22;2229;48.708;9.706;2023-01-31T04:36:15;2.60;99.90
4433;DHT22;2229;48.708;9.706;2023-01-31T04:38:42;2.60;99.90
4433;DHT22;2229;48.708;9.706;2023-01-31T04:41:11;2.60;99.90
4433;DHT22;2229;48.708;9.706;2023-01-31T04:43:38;2.60;99.90
4433;DHT22;2229;48.708;9.706;2023-01-31T04:46:06;2.60;99.90
4433;DHT22;2229;48.708;9.706;2023-01-31T04:48:33;2.60;99.90
4433;DHT22;2229;48.708;9.706;2023-01-31T04:51:02;2.60;99.90
4433;DHT22;2229;48.708;9.706;2023-01-31T04:53:29;2.60;99.90
4433;DHT22;2229;48.708;9.706;2023-01-31T04:55:56;2.60;99.90
4433;DHT22;2229;48.708;9.706;2023-01-31T04:58:25;2.50;99.90
4433;DHT22;2229;48.708;9.706;2023-01-31T05:00:56;2.50;99.90
4433;DHT22;2229;48.708;9.706;2023-01-31T05:03:23;2.50;99.90
4433;DHT22;2229;48.708;9.706;2023-01-31T05:05:51;2.50;99.90
4433;DHT22;2229;48.708;9.706;2023-01-31T05:08:19;2.50;99.90
4433;DHT22;2229;48.708;9.706;2023-01-31T05:10:47;2.50;99.90
4433;DHT22;2229;48.708;9.706;2023-01-31T05:13:14;2.50;99.90
4433;DHT22;2229;48.708;9.706;2023-01-31T05:15:47;2.50;99.90
4433;DHT22;2229;48.708;9.706;2023-01-31T05:18:14;2.50;99.90
4433;DHT22;2229;48.708;9.706;2023-01-31T05:20:42;2.50;99.90
4433;DHT22;2229;48.708;9.706;2023-01-31T05:23:10;2.50;99.90
4433;DHT22;2229;48.708;9.706;2023-01-31T05:25:38;2.40;99.90
4433;DHT22;2229;48.708;9.706;2023-01-31T05:28:05;2.40;99.90
4433;DHT22;2229;48.708;9.706;2023-01-31T05:30:33;2.30;99.90
4433;DHT22;2229;48.708;9.706;2023-01-31T05:33:02;2.30;99.90
4433;DHT22;2229;48.708;9.706;2023-01-31T05:35:30;2.30;99.90
4433;DHT22;2229;48.708;9.706;2023-01-31T05:37:57;2.30;99.90
4433;DHT22;2229;48.708;9.706;2023-01-31T05:40:26;2.20;99.90
4433;DHT22;2229;48.708;9.706;2023-01-31T05:42:57;2.20;99.90
4433;DHT22;2229;48.708;9.706;2023-01-31T05:45:26;2.20;99.90
4433;DHT22;2229;48.708;9.706;2023-01-31T05:47:55;2.20;99.90
4433;DHT22;2229;48.708;9.706;2023-01-31T05:50:24;2.10;99.90
4433;DHT22;2229;48.708;9.706;2023-01-31T05:52:53;2.10;99.90
4433;DHT22;2229;48.708;9.706;2023-01-31T05:55:21;2.10;99.90
4433;DHT22;2229;48.708;9.706;2023-01-31T05:57:48;2.10;99.90
4433;DHT22;2229;48.708;9.706;2023-01-31T06:00:16;2.10;99.90
4433;DHT22;2229;48.708;9.706;2023-01-31T06:02:44;2.10;99.90
4433;DHT22;2229;48.708;9.706;2023-01-31T06:05:13;2.10;99.90
4433;DHT22;2229;48.708;9.706;2023-01-31T06:07:41;2.10;99.90
4433;DHT22;2229;48.708;9.706;2023-01-31T06:10:10;2.10;99.90
4433;DHT22;2229;48.708;9.706;2023-01-31T06:12:38;2.10;99.90
4433;DHT22;2229;48.708;9.706;2023-01-31T06:15:06;2.10;99.90
4433;DHT22;2229;48.708;9.706;2023-01-31T06:17:34;2.20;99.90
4433;DHT22;2229;48.708;9.706;2023-01-31T06:20:02;2.10;99.90
4433;DHT22;2229;48.708;9.706;2023-01-31T06:22:31;2.10;99.90
4433;DHT22;2229;48.708;9.706;2023-01-31T06:24:59;2.10;99.90
4433;DHT22;2229;48.708;9.706;2023-01-31T06:27:29;2.10;99.90
4433;DHT22;2229;48.708;9.706;2023-01-31T06:29:57;2.00;99.90
4433;DHT22;2229;48.708;9.706;2023-01-31T06:32:24;2.00;99.90
4433;DHT22;2229;48.708;9.706;2023-01-31T06:34:51;2.00;99.90
4433;DHT22;2229;48.708;9.706;2023-01-31T06:37:18;2.00;99.90
4433;DHT22;2229;48.708;9.706;2023-01-31T06:39:45;1.90;99.90
4433;DHT22;2229;48.708;9.706;2023-01-31T06:42:14;1.90;99.90
4433;DHT22;2229;48.708;9.706;2023-01-31T06:44:41;1.80;99.90
4433;DHT22;2229;48.708;9.706;2023-01-31T06:47:08;1.90;99.90
4433;DHT22;2229;48.708;9.706;2023-01-31T06:49:38;1.90;99.90
4433;DHT22;2229;48.708;9.706;2023-01-31T06:52:07;1.50;99.90
4433;DHT22;2229;48.708;9.706;2023-01-31T06:54:34;1.90;99.90
4433;DHT22;2229;48.708;9.706;2023-01-31T06:57:02;1.90;99.90
4433;DHT22;2229;48.708;9.706;2023-01-31T06:59:30;1.80;99.90
4433;DHT22;2229;48.708;9.706;2023-01-31T07:01:58;1.80;99.90
4433;DHT22;2229;48.708;9.706;2023-01-31T07:04:25;1.80;99.90
4433;DHT22;2229;48.708;9.706;2023-01-31T07:06:52;1.80;99.90
4433;DHT22;2229;48.708;9.706;2023-01-31T07:09:19;1.80;99.90
4433;DHT22;2229;48.708;9.706;2023-01-31T07:11:47;1.80;99.90
4433;DHT22;2229;48.708;9.706;2023-01-31T07:14:15;1.70;99.90
4433;DHT22;2229;48.708;9.706;2023-01-31T07:16:43;1.70;99.90
4433;DHT22;2229;48.708;9.706;2023-01-31T07:19:11;1.70;99.90
4433;DHT22;2229;48.708;9.706;2023-01-31T07:21:39;1.70;99.90
4433;DHT22;2229;48.708;9.706;2023-01-31T07:24:08;1.80;99.90
4433;DHT22;2229;48.708;9.706;2023-01-31T07:26:35;1.80;99.90
4433;DHT22;2229;48.708;9.706;2023-01-31T07:29:02;1.80;99.90
4433;DHT22;2229;48.708;9.706;2023-01-31T07:31:30;1.90;99.90
4433;DHT22;2229;48.708;9.706;2023-01-31T07:33:58;1.90;99.90
4433;DHT22;2229;48.708;9.706;2023-01-31T07:36:26;2.00;99.90
4433;DHT22;2229;48.708;9.706;2023-01-31T07:38:54;2.10;99.90
4433;DHT22;2229;48.708;9.706;2023-01-31T07:41:22;2.10;99.90
4433;DHT22;2229;48.708;9.706;2023-01-31T07:43:50;2.20;99.90
4433;DHT22;2229;48.708;9.706;2023-01-31T07:46:18;2.20;99.90
4433;DHT22;2229;48.708;9.706;2023-01-31T07:48:45;2.20;99.90
4433;DHT22;2229;48.708;9.706;2023-01-31T07:51:14;2.30;99.90
4433;DHT22;2229;48.708;9.706;2023-01-31T07:53:41;2.30;99.90
4433;DHT22;2229;48.708;9.706;2023-01-31T07:56:10;2.40;99.90
4433;DHT22;2229;48.708;9.706;2023-01-31T07:58:38;2.40;99.90
4433;DHT22;2229;48.708;9.706;2023-01-31T08:01:08;2.50;99.90
4433;DHT22;2229;48.708;9.706;2023-01-31T08:03:53;2.80;99.90
4433;DHT22;2229;48.708;9.706;2023-01-31T08:06:22;3.10;99.90
4433;DHT22;2229;48.708;9.706;2023-01-31T08:08:49;3.40;99.90
4433;DHT22;2229;48.708;9.706;2023-01-31T08:11:17;3.80;99.90
4433;DHT22;2229;48.708;9.706;2023-01-31T08:13:44;4.20;99.90
4433;DHT22;2229;48.708;9.706;2023-01-31T08:16:12;4.70;99.90
4433;DHT22;2229;48.708;9.706;2023-01-31T08:21:36;5.40;99.90
4433;DHT22;2229;48.708;9.706;2023-01-31T08:24:04;5.70;99.90
4433;DHT22;2229;48.708;9.706;2023-01-31T08:26:31;5.70;99.90
4433;DHT22;2229;48.708;9.706;2023-01-31T08:28:58;5.70;99.40
4433;DHT22;2229;48.708;9.706;2023-01-31T08:31:26;5.50;98.60
4433;DHT22;2229;48.708;9.706;2023-01-31T08:33:54;5.40;98.00
4433;DHT22;2229;48.708;9.706;2023-01-31T08:36:23;5.20;97.60
4433;DHT22;2229;48.708;9.706;2023-01-31T08:38:52;5.00;97.50
4433;DHT22;2229;48.708;9.706;2023-01-31T08:41:21;4.80;97.60
4433;DHT22;2229;48.708;9.706;2023-01-31T08:43:49;4.60;97.80
4433;DHT22;2229;48.708;9.706;2023-01-31T08:46:21;4.60;98.00
4433;DHT22;2229;48.708;9.706;2023-01-31T08:48:48;4.50;98.40
4433;DHT22;2229;48.708;9.706;2023-01-31T08:51:16;4.50;98.70
4433;DHT22;2229;48.708;9.706;2023-01-31T08:53:44;4.60;98.90
4433;DHT22;2229;48.708;9.706;2023-01-31T08:56:14;4.60;98.80
4433;DHT22;2229;48.708;9.706;2023-01-31T08:58:43;4.60;98.90
4433;DHT22;2229;48.708;9.706;2023-01-31T09:01:11;4.60;98.60
4433;DHT22;2229;48.708;9.706;2023-01-31T09:03:40;4.50;98.40
4433;DHT22;2229;48.708;9.706;2023-01-31T09:06:11;4.50;98.40
4433;DHT22;2229;48.708;9.706;2023-01-31T09:08:39;4.50;98.10
4433;DHT22;2229;48.708;9.706;2023-01-31T09:11:06;4.60;98.50
4433;DHT22;2229;48.708;9.706;2023-01-31T09:13:35;4.80;98.80
4433;DHT22;2229;48.708;9.706;2023-01-31T09:16:05;4.90;98.00
4433;DHT22;2229;48.708;9.706;2023-01-31T09:18:33;5.00;97.40
4433;DHT22;2229;48.708;9.706;2023-01-31T09:21:03;4.90;97.10
4433;DHT22;2229;48.708;9.706;2023-01-31T09:23:30;5.00;97.40
4433;DHT22;2229;48.708;9.706;2023-01-31T09:25:58;5.00;97.30
4433;DHT22;2229;48.708;9.706;2023-01-31T09:28:25;5.10;96.90
4433;DHT22;2229;48.708;9.706;2023-01-31T09:30:54;5.10;97.00
4433;DHT22;2229;48.708;9.706;2023-01-31T09:33:22;5.20;96.00
4433;DHT22;2229;48.708;9.706;2023-01-31T09:35:55;5.20;96.10
4433;DHT22;2229;48.708;9.706;2023-01-31T09:38:23;5.40;96.00
4433;DHT22;2229;48.708;9.706;2023-01-31T09:40:50;5.50;95.40
4433;DHT22;2229;48.708;9.706;2023-01-31T09:43:21;5.60;95.20
4433;DHT22;2229;48.708;9.706;2023-01-31T09:45:54;5.70;94.90
4433;DHT22;2229;48.708;9.706;2023-01-31T09:48:25;5.80;94.50
4433;DHT22;2229;48.708;9.706;2023-01-31T09:50:55;5.90;93.90
4433;DHT22;2229;48.708;9.706;2023-01-31T09:53:29;6.20;93.90
4433;DHT22;2229;48.708;9.706;2023-01-31T09:56:08;6.70;93.60
4433;DHT22;2229;48.708;9.706;2023-01-31T09:58:45;7.20;93.10
4433;DHT22;2229;48.708;9.706;2023-01-31T10:01:22;7.60;92.60
4433;DHT22;2229;48.708;9.706;2023-01-31T10:04:06;7.60;91.10
4433;DHT22;2229;48.708;9.706;2023-01-31T10:06:40;7.50;90.80
4433;DHT22;2229;48.708;9.706;2023-01-31T10:09:16;7.10;89.60
4433;DHT22;2229;48.708;9.706;2023-01-31T10:11:48;6.80;90.50
4433;DHT22;2229;48.708;9.706;2023-01-31T10:14:22;6.50;90.80
4433;DHT22;2229;48.708;9.706;2023-01-31T10:37:47;5.10;93.40
4433;DHT22;2229;48.708;9.706;2023-01-31T10:40:18;5.10;93.20
4433;DHT22;2229;48.708;9.706;2023-01-31T10:42:50;5.20;93.30
4433;DHT22;2229;48.708;9.706;2023-01-31T10:45:20;5.20;93.30
4433;DHT22;2229;48.708;9.706;2023-01-31T10:47:50;5.20;93.50
4433;DHT22;2229;48.708;9.706;2023-01-31T10:50:21;5.30;93.60
4433;DHT22;2229;48.708;9.706;2023-01-31T10:53:08;5.30;93.40
4433;DHT22;2229;48.708;9.706;2023-01-31T10:55:56;5.40;93.90
4433;DHT22;2229;48.708;9.706;2023-01-31T10:58:26;5.60;93.90
4433;DHT22;2229;48.708;9.706;2023-01-31T11:00:54;5.70;93.70
4433;DHT22;2229;48.708;9.706;2023-01-31T11:03:21;5.80;93.30
4433;DHT22;2229;48.708;9.706;2023-01-31T11:05:51;5.80;92.70
4433;DHT22;2229;48.708;9.706;2023-01-31T11:08:32;6.20;92.90
4433;DHT22;2229;48.708;9.706;2023-01-31T11:11:06;6.70;92.70
4433;DHT22;2229;48.708;9.706;2023-01-31T11:13:33;7.30;91.60
4433;DHT22;2229;48.708;9.706;2023-01-31T11:16:02;7.70;91.00
4433;DHT22;2229;48.708;9.706;2023-01-31T11:18:32;7.90;90.10
4433;DHT22;2229;48.708;9.706;2023-01-31T11:21:02;7.90;89.40
4433;DHT22;2229;48.708;9.706;2023-01-31T11:23:34;7.60;88.00
4433;DHT22;2229;48.708;9.706;2023-01-31T11:26:02;7.20;88.30
4433;DHT22;2229;48.708;9.706;2023-01-31T11:28:34;6.80;87.90
4433;DHT22;2229;48.708;9.706;2023-01-31T11:31:04;6.50;88.60
4433;DHT22;2229;48.708;9.706;2023-01-31T11:33:40;6.20;89.70
4433;DHT22;2229;48.708;9.706;2023-01-31T11:36:11;6.00;90.40
4433;DHT22;2229;48.708;9.706;2023-01-31T11:38:41;6.00;90.70
4433;DHT22;2229;48.708;9.706;2023-01-31T11:41:31;5.90;91.00
4433;DHT22;2229;48.708;9.706;2023-01-31T11:44:07;5.90;90.80
4433;DHT22;2229;48.708;9.706;2023-01-31T11:46:45;6.00;90.90
4433;DHT22;2229;48.708;9.706;2023-01-31T11:49:20;6.10;90.40
4433;DHT22;2229;48.708;9.706;2023-01-31T11:51:49;6.10;90.20
4433;DHT22;2229;48.708;9.706;2023-01-31T11:54:23;6.10;90.80
4433;DHT22;2229;48.708;9.706;2023-01-31T11:56:51;6.20;90.90
4433;DHT22;2229;48.708;9.706;2023-01-31T11:59:24;6.40;91.10
4433;DHT22;2229;48.708;9.706;2023-01-31T12:01:55;6.50;90.40
4433;DHT22;2229;48.708;9.706;2023-01-31T12:04:27;6.50;90.50
4433;DHT22;2229;48.708;9.706;2023-01-31T12:07:20;6.80;89.00
4433;DHT22;2229;48.708;9.706;2023-01-31T12:09:50;6.80;89.30
4433;DHT22;2229;48.708;9.706;2023-01-31T12:12:24;6.80;88.30
4433;DHT22;2229;48.708;9.706;2023-01-31T12:14:59;6.70;88.00
4433;DHT22;2229;48.708;9.706;2023-01-31T12:17:28;6.60;87.90
4433;DHT22;2229;48.708;9.706;2023-01-31T12:25:55;6.30;89.20
4433;DHT22;2229;48.708;9.706;2023-01-31T12:28:34;6.20;89.10
4433;DHT22;2229;48.708;9.706;2023-01-31T12:31:22;6.20;88.90
4433;DHT22;2229;48.708;9.706;2023-01-31T12:34:03;6.20;89.20
4433;DHT22;2229;48.708;9.706;2023-01-31T12:36:46;6.20;89.30
4433;DHT22;2229;48.708;9.706;2023-01-31T12:39:38;6.20;90.00
4433;DHT22;2229;48.708;9.706;2023-01-31T12:42:20;6.20;89.70
4433;DHT22;2229;48.708;9.706;2023-01-31T12:44:55;6.10;89.20
4433;DHT22;2229;48.708;9.706;2023-01-31T12:50:28;6.00;89.00
4433;DHT22;2229;48.708;9.706;2023-01-31T12:53:30;5.60;88.90
4433;DHT22;2229;48.708;9.706;2023-01-31T12:56:11;5.80;89.10
4433;DHT22;2229;48.708;9.706;2023-01-31T12:58:49;5.80;89.60
4433;DHT22;2229;48.708;9.706;2023-01-31T13:01:26;5.80;90.00
4433;DHT22;2229;48.708;9.706;2023-01-31T13:04:12;5.70;90.00
4433;DHT22;2229;48.708;9.706;2023-01-31T13:06:46;5.70;90.00
4433;DHT22;2229;48.708;9.706;2023-01-31T13:09:19;5.70;89.90
4433;DHT22;2229;48.708;9.706;2023-01-31T13:11:51;5.70;90.10
4433;DHT22;2229;48.708;9.706;2023-01-31T13:14:28;5.60;90.20
4433;DHT22;2229;48.708;9.706;2023-01-31T13:16:59;5.60;90.30
4433;DHT22;2229;48.708;9.706;2023-01-31T13:19:32;5.60;90.20
4433;DHT22;2229;48.708;9.706;2023-01-31T13:22:03;5.50;90.40
4433;DHT22;2229;48.708;9.706;2023-01-31T13:24:35;5.60;90.80
4433;DHT22;2229;48.708;9.706;2023-01-31T13:27:10;5.50;90.60
4433;DHT22;2229;48.708;9.706;2023-01-31T13:29:42;5.50;90.80
4433;DHT22;2229;48.708;9.706;2023-01-31T13:32:17;5.40;90.70
4433;DHT22;2229;48.708;9.706;2023-01-31T13:34:51;5.40;90.70
4433;DHT22;2229;48.708;9.706;2023-01-31T13:37:20;5.30;90.80
4433;DHT22;2229;48.708;9.706;2023-01-31T13:39:56;5.20;90.90
4433;DHT22;2229;48.708;9.706;2023-01-31T13:42:24;5.20;91.10
4433;DHT22;2229;48.708;9.706;2023-01-31T13:44:55;4.80;90.90
4433;DHT22;2229;48.708;9.706;2023-01-31T13:47:28;5.10;90.60
4433;DHT22;2229;48.708;9.706;2023-01-31T13:49:58;5.20;91.80
4433;DHT22;2229;48.708;9.706;2023-01-31T13:52:31;5.30;92.20
4433;DHT22;2229;48.708;9.706;2023-01-31T13:55:05;5.30;90.90
4433;DHT22;2229;48.708;9.706;2023-01-31T13:57:39;5.30;90.40
4433;DHT22;2229;48.708;9.706;2023-01-31T14:00:29;5.20;90.60
4433;DHT22;2229;48.708;9.706;2023-01-31T14:03:00;5.20;90.60
4433;DHT22;2229;48.708;9.706;2023-01-31T14:05:49;5.20;90.60
4433;DHT22;2229;48.708;9.706;2023-01-31T14:08:35;5.20;90.80
4433;DHT22;2229;48.708;9.706;2023-01-31T14:11:32;5.20;90.90
4433;DHT22;2229;48.708;9.706;2023-01-31T14:14:18;5.20;90.80
4433;DHT22;2229;48.708;9.706;2023-01-31T14:16:48;5.20;90.80
4433;DHT22;2229;48.708;9.706;2023-01-31T14:22:29;5.20;90.50
4433;DHT22;2229;48.708;9.706;2023-01-31T14:25:01;5.20;90.70
4433;DHT22;2229;48.708;9.706;2023-01-31T14:27:35;5.30;91.20
4433;DHT22;2229;48.708;9.706;2023-01-31T14:30:20;5.40;91.40
4433;DHT22;2229;48.708;9.706;2023-01-31T14:33:03;5.40;91.20
4433;DHT22;2229;48.708;9.706;2023-01-31T14:35:45;5.40;90.80
4433;DHT22;2229;48.708;9.706;2023-01-31T14:38:22;5.40;90.60
4433;DHT22;2229;48.708;9.706;2023-01-31T14:40:59;5.40;90.40
4433;DHT22;2229;48.708;9.706;2023-01-31T14:43:38;5.30;90.30
4433;DHT22;2229;48.708;9.706;2023-01-31T14:46:24;5.20;90.40
4433;DHT22;2229;48.708;9.706;2023-01-31T14:49:11;5.20;90.50
4433;DHT22;2229;48.708;9.706;2023-01-31T14:51:51;5.10;90.50
4433;DHT22;2229;48.708;9.706;2023-01-31T14:54:35;5.10;90.70
4433;DHT22;2229;48.708;9.706;2023-01-31T14:57:13;5.10;90.70
4433;DHT22;2229;48.708;9.706;2023-01-31T14:59:50;5.00;90.70
4433;DHT22;2229;48.708;9.706;2023-01-31T15:02:40;5.00;90.70
4433;DHT22;2229;48.708;9.706;2023-01-31T15:05:13;4.90;90.90
4433;DHT22;2229;48.708;9.706;2023-01-31T15:08:02;4.90;91.00
4433;DHT22;2229;48.708;9.706;2023-01-31T15:10:53;4.90;91.10
4433;DHT22;2229;48.708;9.706;2023-01-31T15:13:39;4.90;91.30
4433;DHT22;2229;48.708;9.706;2023-01-31T15:16:15;4.90;91.40
4433;DHT22;2229;48.708;9.706;2023-01-31T15:18:45;4.80;91.40
4433;DHT22;2229;48.708;9.706;2023-01-31T15:21:22;4.80;91.50
4433;DHT22;2229;48.708;9.706;2023-01-31T15:23:51;4.80;91.40
4433;DHT22;2229;48.708;9.706;2023-01-31T15:26:21;4.70;91.60
4433;DHT22;2229;48.708;9.706;2023-01-31T15:28:49;4.70;91.60
4433;DHT22;2229;48.708;9.706;2023-01-31T15:31:21;4.60;91.60
4433;DHT22;2229;48.708;9.706;2023-01-31T15:33:51;4.60;91.40
4433;DHT22;2229;48.708;9.706;2023-01-31T15:36:26;4.60;91.50
4433;DHT22;2229;48.708;9.706;2023-01-31T15:38:55;4.60;91.60
4433;DHT22;2229;48.708;9.706;2023-01-31T15:41:24;4.60;91.70
4433;DHT22;2229;48.708;9.706;2023-01-31T15:43:53;4.60;91.80
4433;DHT22;2229;48.708;9.706;2023-01-31T15:46:24;4.60;91.80
4433;DHT22;2229;48.708;9.706;2023-01-31T15:48:55;4.50;91.80
4433;DHT22;2229;48.708;9.706;2023-01-31T15:51:24;4.50;91.80
4433;DHT22;2229;48.708;9.706;2023-01-31T15:54:01;4.50;91.80
4433;DHT22;2229;48.708;9.706;2023-01-31T15:56:31;4.50;91.80
4433;DHT22;2229;48.708;9.706;2023-01-31T15:59:04;4.50;91.90
4433;DHT22;2229;48.708;9.706;2023-01-31T16:01:33;4.50;92.10
4433;DHT22;2229;48.708;9.706;2023-01-31T16:04:01;4.50;92.10
4433;DHT22;2229;48.708;9.706;2023-01-31T16:06:32;4.40;92.10
4433;DHT22;2229;48.708;9.706;2023-01-31T16:09:01;4.40;92.20
4433;DHT22;2229;48.708;9.706;2023-01-31T16:11:31;4.40;92.10
4433;DHT22;2229;48.708;9.706;2023-01-31T16:14:01;4.30;92.10
4433;DHT22;2229;48.708;9.706;2023-01-31T16:16:29;4.30;92.30
4433;DHT22;2229;48.708;9.706;2023-01-31T16:18:59;4.30;92.30
4433;DHT22;2229;48.708;9.706;2023-01-31T16:21:33;4.30;92.40
4433;DHT22;2229;48.708;9.706;2023-01-31T16:24:11;4.70;92.60
4433;DHT22;2229;48.708;9.706;2023-01-31T16:26:41;4.30;92.50
4433;DHT22;2229;48.708;9.706;2023-01-31T16:29:14;4.30;92.40
4433;DHT22;2229;48.708;9.706;2023-01-31T16:31:44;4.30;92.50
4433;DHT22;2229;48.708;9.706;2023-01-31T16:34:23;4.30;92.50
4433;DHT22;2229;48.708;9.706;2023-01-31T16:36:56;4.10;92.50
4433;DHT22;2229;48.708;9.706;2023-01-31T16:39:33;4.30;92.60
4433;DHT22;2229;48.708;9.706;2023-01-31T16:42:02;4.20;92.70
4433;DHT22;2229;48.708;9.706;2023-01-31T16:44:33;4.30;92.80
4433;DHT22;2229;48.708;9.706;2023-01-31T16:47:03;4.30;92.80
4433;DHT22;2229;48.708;9.706;2023-01-31T16:49:33;4.30;92.90
4433;DHT22;2229;48.708;9.706;2023-01-31T16:52:23;4.30;92.80
4433;DHT22;2229;48.708;9.706;2023-01-31T16:54:52;4.30;92.90
4433;DHT22;2229;48.708;9.706;2023-01-31T16:57:23;4.20;92.90
4433;DHT22;2229;48.708;9.706;2023-01-31T16:59:53;4.20;93.00
4433;DHT22;2229;48.708;9.706;2023-01-31T17:02:26;4.20;93.00
4433;DHT22;2229;48.708;9.706;2023-01-31T17:04:56;4.20;93.10
4433;DHT22;2229;48.708;9.706;2023-01-31T17:07:27;4.20;93.20
4433;DHT22;2229;48.708;9.706;2023-01-31T17:09:57;4.20;93.40
4433;DHT22;2229;48.708;9.706;2023-01-31T17:12:28;4.20;93.10
4433;DHT22;2229;48.708;9.706;2023-01-31T17:14:56;4.20;93.10
4433;DHT22;2229;48.708;9.706;2023-01-31T17:17:30;4.20;93.10
4433;DHT22;2229;48.708;9.706;2023-01-31T17:20:03;4.20;93.00
4433;DHT22;2229;48.708;9.706;2023-01-31T17:22:37;4.20;93.00
4433;DHT22;2229;48.708;9.706;2023-01-31T17:25:13;4.20;93.10
4433;DHT22;2229;48.708;9.706;2023-01-31T17:27:40;4.20;93.20
4433;DHT22;2229;48.708;9.706;2023-01-31T17:30:08;4.20;93.20
4433;DHT22;2229;48.708;9.706;2023-01-31T17:32:36;4.20;93.30
4433;DHT22;2229;48.708;9.706;2023-01-31T17:35:14;4.50;93.40